sensor_id;sensor_type;location;lat;lon;timestamp;temperature;humidity
34279;DHT22;20538;51.528;9.942;2022-09-20T00:00:04;10.00;99.90
34279;DHT22;20538;51.528;9.942;2022-09-20T00:02:30;10.00;99.90
34279;DHT22;20538;51.528;9.942;2022-09-20T00:04:55;10.00;99.90
34279;DHT22;20538;51.528;9.942;2022-09-20T00:07:21;10.10;99.90
34279;DHT22;20538;51.528;9.942;2022-09-20T00:09:47;10.10;99.90
34279;DHT22;20538;51.528;9.942;2022-09-20T00:12:12;10.10;99.90
34279;DHT22;20538;51.528;9.942;2022-09-20T00:14:38;10.10;99.90
34279;DHT22;20538;51.528;9.942;2022-09-20T00:17:04;10.10;99.90
34279;DHT22;20538;51.528;9.942;2022-09-20T00:19:29;10.10;99.90
34279;DHT22;20538;51.528;9.942;2022-09-20T00:21:55;10.10;99.90
34279;DHT22;20538;51.528;9.942;2022-09-20T00:24:21;10.10;99.90
34279;DHT22;20538;51.528;9.942;2022-09-20T00:26:46;10.10;99.90
34279;DHT22;20538;51.528;9.942;2022-09-20T00:29:12;10.10;99.90
34279;DHT22;20538;51.528;9.942;2022-09-20T00:31:38;10.10;99.90
34279;DHT22;20538;51.528;9.942;2022-09-20T00:34:08;10.00;99.90
34279;DHT22;20538;51.528;9.942;2022-09-20T00:36:53;10.10;99.90
34279;DHT22;20538;51.528;9.942;2022-09-20T00:39:18;10.00;99.90
34279;DHT22;20538;51.528;9.942;2022-09-20T00:41:44;10.00;99.90
34279;DHT22;20538;51.528;9.942;2022-09-20T00:45:03;10.00;99.90
34279;DHT22;20538;51.528;9.942;2022-09-20T00:47:23;10.00;99.90
34279;DHT22;20538;51.528;9.942;2022-09-20T00:49:54;10.00;99.90
34279;DHT22;20538;51.528;9.942;2022-09-20T00:52:20;9.80;99.90
34279;DHT22;20538;51.528;9.942;2022-09-20T00:54:47;9.80;99.90
34279;DHT22;20538;51.528;9.942;2022-09-20T00:57:13;9.70;99.90
34279;DHT22;20538;51.528;9.942;2022-09-20T00:59:40;9.60;99.90
34279;DHT22;20538;51.528;9.942;2022-09-20T01:02:20;9.50;99.90
34279;DHT22;20538;51.528;9.942;2022-09-20T01:04:48;9.60;99.90
34279;DHT22;20538;51.528;9.942;2022-09-20T01:07:16;9.50;99.90
34279;DHT22;20538;51.528;9.942;2022-09-20T01:09:45;9.50;99.90
34279;DHT22;20538;51.528;9.942;2022-09-20T01:12:17;9.50;99.90
34279;DHT22;20538;51.528;9.942;2022-09-20T01:14:45;9.50;99.90
34279;DHT22;20538;51.528;9.942;2022-09-20T01:17:12;9.60;99.90
34279;DHT22;20538;51.528;9.942;2022-09-20T01:22:28;9.70;99.90
34279;DHT22;20538;51.528;9.942;2022-09-20T01:25:03;9.80;99.90
34279;DHT22;20538;51.528;9.942;2022-09-20T01:27:49;9.80;99.90
34279;DHT22;20538;51.528;9.942;2022-09-20T01:30:20;9.90;99.90
34279;DHT22;20538;51.528;9.942;2022-09-20T01:35:27;9.90;99.90
34279;DHT22;20538;51.528;9.942;2022-09-20T01:46:07;9.80;99.90
34279;DHT22;20538;51.528;9.942;2022-09-20T01:48:39;9.80;99.90
34279;DHT22;20538;51.528;9.942;2022-09-20T01:51:55;9.80;99.90
34279;DHT22;20538;51.528;9.942;2022-09-20T02:00:19;9.90;99.90
34279;DHT22;20538;51.528;9.942;2022-09-20T02:03:13;9.90;99.90
34279;DHT22;20538;51.528;9.942;2022-09-20T02:16:35;9.90;99.90
34279;DHT22;20538;51.528;9.942;2022-09-20T02:21:52;9.90;99.90
34279;DHT22;20538;51.528;9.942;2022-09-20T02:24:44;9.90;99.90
34279;DHT22;20538;51.528;9.942;2022-09-20T02:27:23;10.00;99.90
34279;DHT22;20538;51.528;9.942;2022-09-20T02:30:00;10.00;99.90
34279;DHT22;20538;51.528;9.942;2022-09-20T02:37:59;10.00;99.90
34279;DHT22;20538;51.528;9.942;2022-09-20T02:49:06;10.00;99.90
34279;DHT22;20538;51.528;9.942;2022-09-20T02:51:40;10.00;99.90
34279;DHT22;20538;51.528;9.942;2022-09-20T03:00:07;10.10;99.90
34279;DHT22;20538;51.528;9.942;2022-09-20T03:41:18;9.70;99.90
34279;DHT22;20538;51.528;9.942;2022-09-20T03:46:28;9.70;99.90
34279;DHT22;20538;51.528;9.942;2022-09-20T03:51:28;9.60;99.90
34279;DHT22;20538;51.528;9.942;2022-09-20T04:00:22;9.60;99.90
34279;DHT22;20538;51.528;9.942;2022-09-20T04:09:07;9.70;99.90
34279;DHT22;20538;51.528;9.942;2022-09-20T04:12:02;9.60;99.90
34279;DHT22;20538;51.528;9.942;2022-09-20T04:15:21;9.70;99.90
34279;DHT22;20538;51.528;9.942;2022-09-20T04:17:30;9.70;99.90
34279;DHT22;20538;51.528;9.942;2022-09-20T04:20:30;9.60;99.90
34279;DHT22;20538;51.528;9.942;2022-09-20T04:23:03;9.60;99.90
34279;DHT22;20538;51.528;9.942;2022-09-20T04:25:39;9.60;99.90
34279;DHT22;20538;51.528;9.942;2022-09-20T04:28:29;9.60;99.90
34279;DHT22;20538;51.528;9.942;2022-09-20T04:31:04;9.70;99.90
34279;DHT22;20538;51.528;9.942;2022-09-20T04:33:36;9.60;99.90
34279;DHT22;20538;51.528;9.942;2022-09-20T04:36:31;9.70;99.90
34279;DHT22;20538;51.528;9.942;2022-09-20T04:50:41;9.70;99.90
34279;DHT22;20538;51.528;9.942;2022-09-20T04:56:06;9.70;99.90
34279;DHT22;20538;51.528;9.942;2022-09-20T04:58:42;9.70;99.90
34279;DHT22;20538;51.528;9.942;2022-09-20T05:20:25;9.70;99.90
34279;DHT22;20538;51.528;9.942;2022-09-20T05:30:57;9.70;99.90
34279;DHT22;20538;51.528;9.942;2022-09-20T05:33:47;9.70;99.90
34279;DHT22;20538;51.528;9.942;2022-09-20T05:36:47;9.80;99.90
34279;DHT22;20538;51.528;9.942;2022-09-20T05:39:33;9.80;99.90
34279;DHT22;20538;51.528;9.942;2022-09-20T05:42:30;9.80;99.90
34279;DHT22;20538;51.528;9.942;2022-09-20T05:47:35;9.90;99.90
34279;DHT22;20538;51.528;9.942;2022-09-20T05:52:52;10.00;99.90
34279;DHT22;20538;51.528;9.942;2022-09-20T06:00:58;10.20;99.90
34279;DHT22;20538;51.528;9.942;2022-09-20T06:03:33;10.20;99.90
34279;DHT22;20538;51.528;9.942;2022-09-20T06:06:13;10.10;99.90
34279;DHT22;20538;51.528;9.942;2022-09-20T06:25:28;10.10;99.90
34279;DHT22;20538;51.528;9.942;2022-09-20T06:28:03;10.20;99.90
34279;DHT22;20538;51.528;9.942;2022-09-20T06:30:38;10.20;99.90
34279;DHT22;20538;51.528;9.942;2022-09-20T06:35:44;10.20;99.90
34279;DHT22;20538;51.528;9.942;2022-09-20T06:41:31;10.30;99.90
34279;DHT22;20538;51.528;9.942;2022-09-20T06:44:00;10.30;99.90
34279;DHT22;20538;51.528;9.942;2022-09-20T06:46:30;10.40;99.90
34279;DHT22;20538;51.528;9.942;2022-09-20T06:48:57;10.40;99.90
34279;DHT22;20538;51.528;9.942;2022-09-20T06:51:26;10.30;99.90
34279;DHT22;20538;51.528;9.942;2022-09-20T06:53:54;10.30;99.90
34279;DHT22;20538;51.528;9.942;2022-09-20T06:56:25;10.30;99.90
34279;DHT22;20538;51.528;9.942;2022-09-20T06:58:52;10.30;99.90
34279;DHT22;20538;51.528;9.942;2022-09-20T07:01:19;10.30;99.90
34279;DHT22;20538;51.528;9.942;2022-09-20T07:03:45;10.30;99.90
34279;DHT22;20538;51.528;9.942;2022-09-20T07:06:11;10.40;99.90
34279;DHT22;20538;51.528;9.942;2022-09-20T07:08:37;10.40;99.90
34279;DHT22;20538;51.528;9.942;2022-09-20T07:11:05;10.40;99.90
34279;DHT22;20538;51.528;9.942;2022-09-20T07:13:31;10.50;99.90
34279;DHT22;20538;51.528;9.942;2022-09-20T07:16:04;10.40;99.90
34279;DHT22;20538;51.528;9.942;2022-09-20T07:18:30;10.50;99.90
34279;DHT22;20538;51.528;9.942;2022-09-20T07:21:00;10.60;99.90
34279;DHT22;20538;51.528;9.942;2022-09-20T07:23:28;10.50;99.90
34279;DHT22;20538;51.528;9.942;2022-09-20T07:25:55;10.70;99.90
34279;DHT22;20538;51.528;9.942;2022-09-20T07:28:26;10.80;99.90
34279;DHT22;20538;51.528;9.942;2022-09-20T07:30:52;10.70;99.90
34279;DHT22;20538;51.528;9.942;2022-09-20T07:33:18;10.90;99.90
34279;DHT22;20538;51.528;9.942;2022-09-20T07:35:48;10.80;99.90
34279;DHT22;20538;51.528;9.942;2022-09-20T07:38:15;10.80;99.90
34279;DHT22;20538;51.528;9.942;2022-09-20T07:40:41;10.80;99.90
34279;DHT22;20538;51.528;9.942;2022-09-20T07:43:07;10.90;99.90
34279;DHT22;20538;51.528;9.942;2022-09-20T07:45:34;10.80;99.90
34279;DHT22;20538;51.528;9.942;2022-09-20T07:48:04;10.90;99.90
34279;DHT22;20538;51.528;9.942;2022-09-20T07:50:32;10.80;99.90
34279;DHT22;20538;51.528;9.942;2022-09-20T07:52:58;10.70;99.90
34279;DHT22;20538;51.528;9.942;2022-09-20T07:55:24;10.80;99.90
34279;DHT22;20538;51.528;9.942;2022-09-20T07:57:49;10.60;99.90
34279;DHT22;20538;51.528;9.942;2022-09-20T08:00:16;10.60;99.90
34279;DHT22;20538;51.528;9.942;2022-09-20T08:02:42;10.50;99.90
34279;DHT22;20538;51.528;9.942;2022-09-20T08:05:10;10.70;99.90
34279;DHT22;20538;51.528;9.942;2022-09-20T08:07:35;10.80;99.90
34279;DHT22;20538;51.528;9.942;2022-09-20T08:10:02;10.90;99.90
34279;DHT22;20538;51.528;9.942;2022-09-20T08:12:28;11.00;99.90
34279;DHT22;20538;51.528;9.942;2022-09-20T08:14:53;11.10;99.90
34279;DHT22;20538;51.528;9.942;2022-09-20T08:17:19;11.30;99.90
34279;DHT22;20538;51.528;9.942;2022-09-20T08:19:45;11.30;99.90
34279;DHT22;20538;51.528;9.942;2022-09-20T08:22:12;11.30;99.90
34279;DHT22;20538;51.528;9.942;2022-09-20T08:24:38;11.10;99.90
34279;DHT22;20538;51.528;9.942;2022-09-20T08:27:04;11.10;99.90
34279;DHT22;20538;51.528;9.942;2022-09-20T08:29:30;11.10;99.90
34279;DHT22;20538;51.528;9.942;2022-09-20T08:31:55;11.00;99.90
34279;DHT22;20538;51.528;9.942;2022-09-20T08:34:23;10.60;99.90
34279;DHT22;20538;51.528;9.942;2022-09-20T08:36:49;10.70;99.90
34279;DHT22;20538;51.528;9.942;2022-09-20T08:39:18;10.60;99.90
34279;DHT22;20538;51.528;9.942;2022-09-20T08:45:03;10.60;99.90
34279;DHT22;20538;51.528;9.942;2022-09-20T08:47:32;10.90;99.90
34279;DHT22;20538;51.528;9.942;2022-09-20T08:50:03;11.10;99.90
34279;DHT22;20538;51.528;9.942;2022-09-20T08:52:33;11.20;99.90
34279;DHT22;20538;51.528;9.942;2022-09-20T08:55:23;11.30;99.90
34279;DHT22;20538;51.528;9.942;2022-09-20T08:57:52;11.40;99.90
34279;DHT22;20538;51.528;9.942;2022-09-20T09:00:29;11.60;99.90
34279;DHT22;20538;51.528;9.942;2022-09-20T09:02:58;11.50;99.90
34279;DHT22;20538;51.528;9.942;2022-09-20T09:08:05;11.50;99.90
34279;DHT22;20538;51.528;9.942;2022-09-20T09:10:37;11.50;99.90
34279;DHT22;20538;51.528;9.942;2022-09-20T09:13:04;11.90;99.90
34279;DHT22;20538;51.528;9.942;2022-09-20T09:15:35;12.30;99.90
34279;DHT22;20538;51.528;9.942;2022-09-20T09:18:01;12.60;99.90
34279;DHT22;20538;51.528;9.942;2022-09-20T09:20:27;12.80;99.90
34279;DHT22;20538;51.528;9.942;2022-09-20T09:23:05;12.30;99.90
34279;DHT22;20538;51.528;9.942;2022-09-20T09:25:40;12.10;99.90
34279;DHT22;20538;51.528;9.942;2022-09-20T09:30:38;12.30;99.90
34279;DHT22;20538;51.528;9.942;2022-09-20T09:33:29;12.30;99.90
34279;DHT22;20538;51.528;9.942;2022-09-20T09:38:39;12.00;99.90
34279;DHT22;20538;51.528;9.942;2022-09-20T09:41:22;11.80;99.90
34279;DHT22;20538;51.528;9.942;2022-09-20T09:46:30;11.90;99.90
34279;DHT22;20538;51.528;9.942;2022-09-20T09:49:15;11.90;99.90
34279;DHT22;20538;51.528;9.942;2022-09-20T09:54:28;12.00;99.90
34279;DHT22;20538;51.528;9.942;2022-09-20T10:02:33;11.90;99.90
34279;DHT22;20538;51.528;9.942;2022-09-20T10:07:43;11.80;99.90
34279;DHT22;20538;51.528;9.942;2022-09-20T10:13:18;11.80;99.90
34279;DHT22;20538;51.528;9.942;2022-09-20T10:15:52;11.70;99.90
34279;DHT22;20538;51.528;9.942;2022-09-20T10:37:45;13.50;99.90
34279;DHT22;20538;51.528;9.942;2022-09-20T10:42:50;13.50;99.90
34279;DHT22;20538;51.528;9.942;2022-09-20T10:48:40;13.20;99.90
34279;DHT22;20538;51.528;9.942;2022-09-20T10:56:51;12.80;99.90
34279;DHT22;20538;51.528;9.942;2022-09-20T11:05:04;10.10;99.90
34279;DHT22;20538;51.528;9.942;2022-09-20T11:07:50;10.10;99.90
34279;DHT22;20538;51.528;9.942;2022-09-20T11:10:22;10.20;99.90
34279;DHT22;20538;51.528;9.942;2022-09-20T11:12:57;10.30;99.90
34279;DHT22;20538;51.528;9.942;2022-09-20T11:15:43;10.30;99.90
34279;DHT22;20538;51.528;9.942;2022-09-20T11:20:41;10.30;99.90
34279;DHT22;20538;51.528;9.942;2022-09-20T11:23:14;10.40;99.90
34279;DHT22;20538;51.528;9.942;2022-09-20T11:25:48;10.60;99.90
34279;DHT22;20538;51.528;9.942;2022-09-20T11:33:48;11.10;99.90
34279;DHT22;20538;51.528;9.942;2022-09-20T11:36:29;11.30;99.90
34279;DHT22;20538;51.528;9.942;2022-09-20T11:41:48;11.00;99.90
34279;DHT22;20538;51.528;9.942;2022-09-20T11:44:18;10.70;99.90
34279;DHT22;20538;51.528;9.942;2022-09-20T11:46:57;11.00;99.90
34279;DHT22;20538;51.528;9.942;2022-09-20T11:55:16;11.40;99.90
34279;DHT22;20538;51.528;9.942;2022-09-20T11:57:44;11.90;99.90
34279;DHT22;20538;51.528;9.942;2022-09-20T12:00:11;11.80;99.90
34279;DHT22;20538;51.528;9.942;2022-09-20T12:02:51;12.00;99.90
34279;DHT22;20538;51.528;9.942;2022-09-20T12:05:31;11.80;99.90
34279;DHT22;20538;51.528;9.942;2022-09-20T12:08:07;12.10;99.90
34279;DHT22;20538;51.528;9.942;2022-09-20T12:10:42;12.50;99.90
34279;DHT22;20538;51.528;9.942;2022-09-20T12:13:24;12.80;99.90
34279;DHT22;20538;51.528;9.942;2022-09-20T12:16:00;13.40;99.90
34279;DHT22;20538;51.528;9.942;2022-09-20T12:18:44;13.30;99.90
34279;DHT22;20538;51.528;9.942;2022-09-20T12:21:16;13.30;99.90
34279;DHT22;20538;51.528;9.942;2022-09-20T12:24:13;13.70;99.90
34279;DHT22;20538;51.528;9.942;2022-09-20T12:26:39;13.50;99.90
34279;DHT22;20538;51.528;9.942;2022-09-20T12:31:51;13.50;99.90
34279;DHT22;20538;51.528;9.942;2022-09-20T12:42:21;11.90;99.90
34279;DHT22;20538;51.528;9.942;2022-09-20T13:00:48;11.40;99.90
34279;DHT22;20538;51.528;9.942;2022-09-20T13:08:21;13.20;99.90
34279;DHT22;20538;51.528;9.942;2022-09-20T13:10:59;13.40;99.90
34279;DHT22;20538;51.528;9.942;2022-09-20T13:13:43;13.40;99.90
34279;DHT22;20538;51.528;9.942;2022-09-20T13:19:13;14.00;99.90
34279;DHT22;20538;51.528;9.942;2022-09-20T13:21:40;14.00;99.90
34279;DHT22;20538;51.528;9.942;2022-09-20T13:24:15;13.90;99.90
34279;DHT22;20538;51.528;9.942;2022-09-20T13:26:45;14.00;99.90
34279;DHT22;20538;51.528;9.942;2022-09-20T13:29:33;14.50;99.90
34279;DHT22;20538;51.528;9.942;2022-09-20T13:35:13;14.10;99.90
34279;DHT22;20538;51.528;9.942;2022-09-20T13:40:42;14.40;99.90
34279;DHT22;20538;51.528;9.942;2022-09-20T13:45:55;13.70;99.90
34279;DHT22;20538;51.528;9.942;2022-09-20T13:48:28;14.10;99.90
34279;DHT22;20538;51.528;9.942;2022-09-20T13:50:56;13.40;99.90
34279;DHT22;20538;51.528;9.942;2022-09-20T13:53:24;12.80;99.90
34279;DHT22;20538;51.528;9.942;2022-09-20T13:55:50;13.10;99.90
34279;DHT22;20538;51.528;9.942;2022-09-20T13:58:31;13.30;99.90
34279;DHT22;20538;51.528;9.942;2022-09-20T14:01:02;13.30;99.90
34279;DHT22;20538;51.528;9.942;2022-09-20T14:03:31;13.60;99.90
34279;DHT22;20538;51.528;9.942;2022-09-20T14:05:59;14.10;99.90
34279;DHT22;20538;51.528;9.942;2022-09-20T14:08:42;14.20;99.90
34279;DHT22;20538;51.528;9.942;2022-09-20T14:11:13;14.30;99.90
34279;DHT22;20538;51.528;9.942;2022-09-20T14:13:42;14.50;99.90
34279;DHT22;20538;51.528;9.942;2022-09-20T14:16:10;14.20;99.90
34279;DHT22;20538;51.528;9.942;2022-09-20T14:18:39;14.40;99.90
34279;DHT22;20538;51.528;9.942;2022-09-20T14:21:06;14.60;99.90
34279;DHT22;20538;51.528;9.942;2022-09-20T14:23:48;14.60;99.90
34279;DHT22;20538;51.528;9.942;2022-09-20T14:28:44;13.90;99.90
34279;DHT22;20538;51.528;9.942;2022-09-20T14:31:17;13.90;99.90
34279;DHT22;20538;51.528;9.942;2022-09-20T14:33:51;14.00;99.90
34279;DHT22;20538;51.528;9.942;2022-09-20T14:36:23;14.20;99.90
34279;DHT22;20538;51.528;9.942;2022-09-20T14:38:51;14.10;99.90
34279;DHT22;20538;51.528;9.942;2022-09-20T14:41:47;14.40;99.90
34279;DHT22;20538;51.528;9.942;2022-09-20T14:46:46;14.60;99.90
34279;DHT22;20538;51.528;9.942;2022-09-20T14:49:20;14.70;99.90
34279;DHT22;20538;51.528;9.942;2022-09-20T14:57:39;14.40;99.90
34279;DHT22;20538;51.528;9.942;2022-09-20T15:00:16;14.20;99.90
34279;DHT22;20538;51.528;9.942;2022-09-20T15:02:43;14.20;99.90
34279;DHT22;20538;51.528;9.942;2022-09-20T15:05:35;14.30;99.90
34279;DHT22;20538;51.528;9.942;2022-09-20T15:08:01;14.50;99.90
34279;DHT22;20538;51.528;9.942;2022-09-20T15:10:27;14.60;99.90
34279;DHT22;20538;51.528;9.942;2022-09-20T15:12:54;14.40;99.90
34279;DHT22;20538;51.528;9.942;2022-09-20T15:15:19;14.30;99.90
34279;DHT22;20538;51.528;9.942;2022-09-20T15:17:45;14.30;99.90
34279;DHT22;20538;51.528;9.942;2022-09-20T15:20:13;14.20;99.90
34279;DHT22;20538;51.528;9.942;2022-09-20T15:22:40;14.30;99.90
34279;DHT22;20538;51.528;9.942;2022-09-20T15:25:07;14.40;99.90
34279;DHT22;20538;51.528;9.942;2022-09-20T15:27:35;14.10;99.90
34279;DHT22;20538;51.528;9.942;2022-09-20T15:30:00;13.90;99.90
34279;DHT22;20538;51.528;9.942;2022-09-20T15:32:26;13.90;99.90
34279;DHT22;20538;51.528;9.942;2022-09-20T15:34:52;14.00;99.90
34279;DHT22;20538;51.528;9.942;2022-09-20T15:37:17;13.90;99.90
34279;DHT22;20538;51.528;9.942;2022-09-20T15:39:43;13.80;99.90
34279;DHT22;20538;51.528;9.942;2022-09-20T15:42:08;13.80;99.90
34279;DHT22;20538;51.528;9.942;2022-09-20T15:44:35;13.80;99.90
34279;DHT22;20538;51.528;9.942;2022-09-20T15:47:00;13.70;99.90
34279;DHT22;20538;51.528;9.942;2022-09-20T15:49:27;13.70;99.90
34279;DHT22;20538;51.528;9.942;2022-09-20T15:51:55;13.60;99.90
34279;DHT22;20538;51.528;9.942;2022-09-20T15:54:21;13.60;99.90
34279;DHT22;20538;51.528;9.942;2022-09-20T15:56:47;13.60;99.90
34279;DHT22;20538;51.528;9.942;2022-09-20T15:59:13;13.70;99.90
34279;DHT22;20538;51.528;9.942;2022-09-20T16:01:44;13.70;99.90
34279;DHT22;20538;51.528;9.942;2022-09-20T16:04:17;13.70;99.90
34279;DHT22;20538;51.528;9.942;2022-09-20T16:06:48;13.70;99.90
34279;DHT22;20538;51.528;9.942;2022-09-20T16:09:14;13.60;99.90
34279;DHT22;20538;51.528;9.942;2022-09-20T16:11:40;13.60;99.90
34279;DHT22;20538;51.528;9.942;2022-09-20T16:14:06;13.40;99.90
34279;DHT22;20538;51.528;9.942;2022-09-20T16:16:33;13.30;99.90
34279;DHT22;20538;51.528;9.942;2022-09-20T16:18:59;13.30;99.90
34279;DHT22;20538;51.528;9.942;2022-09-20T16:21:45;13.30;99.90
34279;DHT22;20538;51.528;9.942;2022-09-20T16:24:11;13.30;99.90
34279;DHT22;20538;51.528;9.942;2022-09-20T16:26:38;13.40;99.90
34279;DHT22;20538;51.528;9.942;2022-09-20T16:29:04;13.30;99.90
34279;DHT22;20538;51.528;9.942;2022-09-20T16:31:38;13.30;99.90
34279;DHT22;20538;51.528;9.942;2022-09-20T16:36:37;13.30;99.90
34279;DHT22;20538;51.528;9.942;2022-09-20T16:39:03;13.20;99.90
34279;DHT22;20538;51.528;9.942;2022-09-20T16:41:29;13.30;99.90
34279;DHT22;20538;51.528;9.942;2022-09-20T16:43:56;13.30;99.90
34279;DHT22;20538;51.528;9.942;2022-09-20T16:46:23;13.30;99.90
34279;DHT22;20538;51.528;9.942;2022-09-20T16:48:55;13.30;99.90
34279;DHT22;20538;51.528;9.942;2022-09-20T16:51:24;13.20;99.90
34279;DHT22;20538;51.528;9.942;2022-09-20T16:53:53;13.10;99.90
34279;DHT22;20538;51.528;9.942;2022-09-20T16:56:27;13.10;99.90
34279;DHT22;20538;51.528;9.942;2022-09-20T16:58:54;13.10;99.90
34279;DHT22;20538;51.528;9.942;2022-09-20T17:01:20;13.20;99.90
34279;DHT22;20538;51.528;9.942;2022-09-20T17:03:46;13.00;99.90
34279;DHT22;20538;51.528;9.942;2022-09-20T17:06:14;13.00;99.90
34279;DHT22;20538;51.528;9.942;2022-09-20T17:08:41;13.00;99.90
34279;DHT22;20538;51.528;9.942;2022-09-20T17:11:09;12.90;99.90
34279;DHT22;20538;51.528;9.942;2022-09-20T17:13:36;12.90;99.90
34279;DHT22;20538;51.528;9.942;2022-09-20T17:16:14;12.90;99.90
34279;DHT22;20538;51.528;9.942;2022-09-20T17:18:40;12.80;99.90
34279;DHT22;20538;51.528;9.942;2022-09-20T17:21:09;12.80;99.90
34279;DHT22;20538;51.528;9.942;2022-09-20T17:23:37;12.80;99.90
34279;DHT22;20538;51.528;9.942;2022-09-20T17:26:14;12.80;99.90
34279;DHT22;20538;51.528;9.942;2022-09-20T17:28:45;12.80;99.90
34279;DHT22;20538;51.528;9.942;2022-09-20T17:31:14;12.70;99.90
34279;DHT22;20538;51.528;9.942;2022-09-20T17:33:40;12.70;99.90
34279;DHT22;20538;51.528;9.942;2022-09-20T17:36:08;12.70;99.90
34279;DHT22;20538;51.528;9.942;2022-09-20T17:38:36;12.70;99.90
34279;DHT22;20538;51.528;9.942;2022-09-20T17:41:06;12.60;99.90
34279;DHT22;20538;51.528;9.942;2022-09-20T17:43:36;12.60;99.90
34279;DHT22;20538;51.528;9.942;2022-09-20T17:46:13;12.50;99.90
34279;DHT22;20538;51.528;9.942;2022-09-20T17:48:40;12.40;99.90
34279;DHT22;20538;51.528;9.942;2022-09-20T17:51:07;12.40;99.90
34279;DHT22;20538;51.528;9.942;2022-09-20T17:53:34;12.30;99.90
34279;DHT22;20538;51.528;9.942;2022-09-20T17:56:01;12.30;99.90
34279;DHT22;20538;51.528;9.942;2022-09-20T17:58:27;12.20;99.90
34279;DHT22;20538;51.528;9.942;2022-09-20T18:00:53;11.70;99.90
34279;DHT22;20538;51.528;9.942;2022-09-20T18:03:21;11.20;99.90
34279;DHT22;20538;51.528;9.942;2022-09-20T18:05:48;10.90;99.90
34279;DHT22;20538;51.528;9.942;2022-09-20T18:08:14;10.80;99.90
34279;DHT22;20538;51.528;9.942;2022-09-20T18:10:40;10.70;99.90
34279;DHT22;20538;51.528;9.942;2022-09-20T18:13:06;10.70;99.90
34279;DHT22;20538;51.528;9.942;2022-09-20T18:15:32;10.60;99.90
34279;DHT22;20538;51.528;9.942;2022-09-20T18:17:58;10.30;99.90
34279;DHT22;20538;51.528;9.942;2022-09-20T18:20:24;10.30;99.90
34279;DHT22;20538;51.528;9.942;2022-09-20T18:22:49;10.10;99.90
34279;DHT22;20538;51.528;9.942;2022-09-20T18:25:17;10.10;99.90
34279;DHT22;20538;51.528;9.942;2022-09-20T18:27:42;10.10;99.90
34279;DHT22;20538;51.528;9.942;2022-09-20T18:30:08;10.00;99.90
34279;DHT22;20538;51.528;9.942;2022-09-20T18:32:34;9.90;99.90
34279;DHT22;20538;51.528;9.942;2022-09-20T18:35:00;9.80;99.90
34279;DHT22;20538;51.528;9.942;2022-09-20T18:37:26;9.80;99.90
34279;DHT22;20538;51.528;9.942;2022-09-20T18:39:51;9.70;99.90
34279;DHT22;20538;51.528;9.942;2022-09-20T18:42:17;9.60;99.90
34279;DHT22;20538;51.528;9.942;2022-09-20T18:44:43;9.60;99.90
34279;DHT22;20538;51.528;9.942;2022-09-20T18:47:09;9.50;99.90
34279;DHT22;20538;51.528;9.942;2022-09-20T18:49:35;9.50;99.90
34279;DHT22;20538;51.528;9.942;2022-09-20T18:52:01;9.50;99.90
34279;DHT22;20538;51.528;9.942;2022-09-20T18:54:27;9.40;99.90
34279;DHT22;20538;51.528;9.942;2022-09-20T18:56:58;9.40;99.90
34279;DHT22;20538;51.528;9.942;2022-09-20T18:59:25;9.30;99.90
34279;DHT22;20538;51.528;9.942;2022-09-20T19:07:40;9.20;99.90
34279;DHT22;20538;51.528;9.942;2022-09-20T19:10:42;9.20;99.90
34279;DHT22;20538;51.528;9.942;2022-09-20T19:13:32;9.20;99.90
34279;DHT22;20538;51.528;9.942;2022-09-20T19:16:15;9.30;99.90
34279;DHT22;20538;51.528;9.942;2022-09-20T19:19:08;9.40;99.90
34279;DHT22;20538;51.528;9.942;2022-09-20T19:27:31;9.40;99.90
34279;DHT22;20538;51.528;9.942;2022-09-20T19:29:57;9.30;99.90
34279;DHT22;20538;51.528;9.942;2022-09-20T19:32:23;9.30;99.90
34279;DHT22;20538;51.528;9.942;2022-09-20T19:34:53;9.30;99.90
34279;DHT22;20538;51.528;9.942;2022-09-20T19:37:32;9.30;99.90
34279;DHT22;20538;51.528;9.942;2022-09-20T19:48:07;9.00;99.90
34279;DHT22;20538;51.528;9.942;2022-09-20T19:50:45;9.00;99.90
34279;DHT22;20538;51.528;9.942;2022-09-20T19:53:16;8.90;99.90
34279;DHT22;20538;51.528;9.942;2022-09-20T19:55:46;8.90;99.90
34279;DHT22;20538;51.528;9.942;2022-09-20T19:58:13;8.90;99.90
34279;DHT22;20538;51.528;9.942;2022-09-20T20:00:41;8.90;99.90
34279;DHT22;20538;51.528;9.942;2022-09-20T20:03:12;8.90;99.90
34279;DHT22;20538;51.528;9.942;2022-09-20T20:05:47;8.80;99.90
34279;DHT22;20538;51.528;9.942;2022-09-20T20:08:29;8.80;99.90
34279;DHT22;20538;51.528;9.942;2022-09-20T20:11:37;8.70;99.90
34279;DHT22;20538;51.528;9.942;2022-09-20T20:24:56;8.40;99.90
34279;DHT22;20538;51.528;9.942;2022-09-20T20:27:23;8.40;99.90
34279;DHT22;20538;51.528;9.942;2022-09-20T20:29:49;8.30;99.90
34279;DHT22;20538;51.528;9.942;2022-09-20T20:32:16;8.30;99.90
34279;DHT22;20538;51.528;9.942;2022-09-20T20:34:41;8.30;99.90
34279;DHT22;20538;51.528;9.942;2022-09-20T20:37:08;8.30;99.90
34279;DHT22;20538;51.528;9.942;2022-09-20T20:39:33;8.20;99.90
34279;DHT22;20538;51.528;9.942;2022-09-20T20:42:01;8.20;99.90
34279;DHT22;20538;51.528;9.942;2022-09-20T20:44:31;8.20;99.90
34279;DHT22;20538;51.528;9.942;2022-09-20T20:47:04;8.10;99.90
34279;DHT22;20538;51.528;9.942;2022-09-20T20:49:31;8.10;99.90
34279;DHT22;20538;51.528;9.942;2022-09-20T20:51:56;8.10;99.90
34279;DHT22;20538;51.528;9.942;2022-09-20T20:54:24;8.00;99.90
34279;DHT22;20538;51.528;9.942;2022-09-20T20:56:50;8.00;99.90
34279;DHT22;20538;51.528;9.942;2022-09-20T20:59:15;8.00;99.90
34279;DHT22;20538;51.528;9.942;2022-09-20T21:01:41;8.00;99.90
34279;DHT22;20538;51.528;9.942;2022-09-20T21:04:10;8.00;99.90
34279;DHT22;20538;51.528;9.942;2022-09-20T21:06:38;8.00;99.90
34279;DHT22;20538;51.528;9.942;2022-09-20T21:09:08;7.90;99.90
34279;DHT22;20538;51.528;9.942;2022-09-20T21:11:37;7.80;99.90
34279;DHT22;20538;51.528;9.942;2022-09-20T21:14:04;7.80;99.90
34279;DHT22;20538;51.528;9.942;2022-09-20T21:16:36;7.70;99.90
34279;DHT22;20538;51.528;9.942;2022-09-20T21:19:04;7.70;99.90
34279;DHT22;20538;51.528;9.942;2022-09-20T21:21:33;7.80;99.90
34279;DHT22;20538;51.528;9.942;2022-09-20T21:24:02;7.80;99.90
34279;DHT22;20538;51.528;9.942;2022-09-20T21:26:29;7.80;99.90
34279;DHT22;20538;51.528;9.942;2022-09-20T21:29:03;7.70;99.90
34279;DHT22;20538;51.528;9.942;2022-09-20T21:31:31;7.60;99.90
34279;DHT22;20538;51.528;9.942;2022-09-20T21:33:57;7.60;99.90
34279;DHT22;20538;51.528;9.942;2022-09-20T21:36:25;7.70;99.90
34279;DHT22;20538;51.528;9.942;2022-09-20T21:38:51;7.60;99.90
34279;DHT22;20538;51.528;9.942;2022-09-20T21:41:26;7.70;99.90
34279;DHT22;20538;51.528;9.942;2022-09-20T21:43:55;7.60;99.90
34279;DHT22;20538;51.528;9.942;2022-09-20T21:46:26;7.60;99.90
34279;DHT22;20538;51.528;9.942;2022-09-20T21:48:56;7.60;99.90
34279;DHT22;20538;51.528;9.942;2022-09-20T21:51:23;7.60;99.90